createdAt,value
2018-06-09T00:01:14.603Z,8.37
2018-06-09T00:03:43.488Z,7.73
2018-06-09T00:06:12.397Z,8.40
2018-06-09T00:08:41.136Z,8.90
2018-06-09T00:11:10.067Z,11.13
2018-06-09T00:13:38.752Z,8.83
2018-06-09T00:16:07.741Z,8.50
2018-06-09T00:18:36.636Z,8.47
2018-06-09T00:21:06.145Z,9.10
2018-06-09T00:23:35.243Z,9.10
2018-06-09T00:26:04.027Z,9.13
2018-06-09T00:28:33.018Z,9.13
2018-06-09T00:31:01.805Z,10.07
2018-06-09T00:33:30.699Z,9.27
2018-06-09T00:35:59.489Z,9.97
2018-06-09T00:38:28.405Z,10.83
2018-06-09T00:40:57.373Z,9.67
2018-06-09T00:43:26.186Z,9.70
2018-06-09T00:45:55.066Z,9.90
2018-06-09T00:48:23.838Z,9.90
2018-06-09T00:50:52.560Z,10.23
2018-06-09T00:53:21.455Z,9.67
2018-06-09T00:55:50.306Z,9.90
2018-06-09T00:58:19.093Z,9.73
2018-06-09T01:00:48.191Z,10.00
2018-06-09T01:03:17.055Z,10.20
2018-06-09T01:05:45.929Z,10.67
2018-06-09T01:08:14.910Z,9.83
2018-06-09T01:10:43.763Z,9.90
2018-06-09T01:13:12.758Z,9.83
2018-06-09T01:15:41.494Z,9.80
2018-06-09T01:18:10.213Z,10.80
2018-06-09T01:20:39.080Z,10.30
2018-06-09T01:23:07.811Z,10.23
2018-06-09T01:25:36.628Z,10.50
2018-06-09T01:28:05.927Z,9.90
2018-06-09T01:30:34.677Z,10.53
2018-06-09T01:33:03.573Z,10.13
2018-06-09T01:35:32.313Z,10.10
2018-06-09T01:38:01.342Z,9.63
2018-06-09T01:40:30.111Z,9.60
2018-06-09T01:42:59.302Z,9.60
2018-06-09T01:45:28.684Z,9.60
2018-06-09T01:47:59.152Z,10.13
2018-06-09T01:50:28.869Z,10.50
2018-06-09T01:52:57.573Z,10.57
2018-06-09T01:55:27.454Z,9.57
2018-06-09T01:57:56.702Z,10.60
2018-06-09T02:00:25.691Z,10.00
2018-06-09T02:02:54.675Z,9.67
2018-06-09T02:05:23.501Z,10.40
2018-06-09T02:07:53.089Z,9.90
2018-06-09T02:10:22.061Z,10.00
2018-06-09T02:12:51.609Z,9.63
2018-06-09T02:15:20.688Z,9.77
2018-06-09T02:17:49.452Z,9.90
2018-06-09T02:20:18.124Z,10.07
2018-06-09T02:22:46.970Z,10.93
2018-06-09T02:25:16.440Z,10.80
2018-06-09T02:27:45.220Z,10.63
2018-06-09T02:30:14.385Z,11.33
2018-06-09T02:32:43.170Z,11.37
2018-06-09T02:35:12.014Z,10.93
2018-06-09T02:37:41.304Z,11.00
2018-06-09T02:40:10.393Z,10.53
2018-06-09T02:42:39.193Z,10.63
2018-06-09T02:45:08.240Z,11.73
2018-06-09T02:47:37.145Z,10.43
2018-06-09T02:50:05.885Z,11.67
2018-06-09T02:52:34.746Z,11.37
2018-06-09T02:55:03.742Z,12.27
2018-06-09T02:57:32.762Z,11.30
2018-06-09T03:00:01.576Z,10.50
2018-06-09T03:02:30.412Z,11.63
2018-06-09T03:04:59.349Z,11.10
2018-06-09T03:07:28.197Z,11.00
2018-06-09T03:09:57.081Z,11.13
2018-06-09T03:12:25.980Z,10.93
2018-06-09T03:14:54.870Z,11.20
2018-06-09T03:17:23.762Z,11.80
2018-06-09T03:19:52.758Z,11.10
2018-06-09T03:22:22.272Z,11.70
2018-06-09T03:24:51.015Z,12.47
2018-06-09T03:27:19.970Z,11.93
2018-06-09T03:29:48.739Z,11.53
2018-06-09T03:32:17.480Z,11.60
2018-06-09T03:34:46.411Z,11.47
2018-06-09T03:37:15.453Z,10.80
2018-06-09T03:39:45.061Z,11.00
2018-06-09T03:42:14.108Z,11.30
2018-06-09T03:44:43.143Z,13.03
2018-06-09T03:47:12.372Z,11.17
2018-06-09T03:49:41.311Z,10.83
2018-06-09T03:52:10.290Z,11.40
2018-06-09T03:54:39.681Z,11.13
2018-06-09T03:57:08.989Z,11.87
2018-06-09T03:59:37.816Z,11.23
2018-06-09T04:02:07.018Z,11.97
2018-06-09T04:04:35.495Z,11.63
2018-06-09T04:07:05.064Z,11.90
2018-06-09T04:09:33.973Z,10.57
2018-06-09T04:12:02.832Z,11.00
2018-06-09T04:14:31.734Z,11.10
2018-06-09T04:17:00.641Z,11.77
2018-06-09T04:19:29.730Z,10.73
2018-06-09T04:22:00.209Z,11.87
2018-06-09T04:24:29.457Z,11.53
2018-06-09T04:26:58.451Z,11.83
2018-06-09T04:29:27.342Z,12.40
2018-06-09T04:31:56.960Z,13.23
2018-06-09T04:34:26.520Z,12.87
2018-06-09T04:36:55.347Z,13.37
2018-06-09T04:39:25.709Z,13.03
2018-06-09T04:41:54.597Z,12.37
2018-06-09T04:44:24.150Z,12.50
2018-06-09T04:46:53.062Z,12.47
2018-06-09T04:49:22.138Z,12.13
2018-06-09T04:51:50.946Z,13.30
2018-06-09T04:54:19.736Z,12.90
2018-06-09T04:56:48.728Z,13.23
2018-06-09T04:59:17.684Z,13.77
2018-06-09T05:01:46.869Z,14.57
2018-06-09T05:04:15.336Z,15.60
2018-06-09T05:06:44.318Z,13.77
2018-06-09T05:09:13.259Z,14.37
2018-06-09T05:11:42.101Z,14.37
2018-06-09T05:14:10.969Z,15.10
2018-06-09T05:16:39.644Z,13.67
2018-06-09T05:19:08.673Z,13.47
2018-06-09T05:21:37.996Z,13.93
2018-06-09T05:24:06.865Z,13.47
2018-06-09T05:26:35.845Z,12.73
2018-06-09T05:29:04.657Z,14.53
2018-06-09T05:31:33.641Z,13.30
2018-06-09T05:34:03.316Z,13.13
2018-06-09T05:36:33.808Z,12.07
2018-06-09T05:39:02.859Z,16.77
2018-06-09T05:41:31.568Z,13.10
2018-06-09T05:44:00.531Z,13.03
2018-06-09T05:46:29.341Z,13.97
2018-06-09T05:48:58.210Z,12.33
2018-06-09T05:51:27.927Z,12.17
2018-06-09T05:53:57.026Z,13.00
2018-06-09T05:56:25.914Z,12.60
2018-06-09T05:58:54.724Z,14.57
2018-06-09T06:01:24.535Z,14.40
2018-06-09T06:03:53.401Z,12.23
2018-06-09T06:06:22.075Z,12.67
2018-06-09T06:08:51.004Z,15.33
2018-06-09T06:11:19.701Z,13.97
2018-06-09T06:13:48.568Z,12.40
2018-06-09T06:16:17.581Z,11.80
2018-06-09T06:18:46.426Z,13.83
2018-06-09T06:21:15.335Z,11.60
2018-06-09T06:23:44.347Z,14.63
2018-06-09T06:26:13.117Z,10.77
2018-06-09T06:28:44.253Z,10.60
2018-06-09T06:31:13.150Z,12.00
2018-06-09T06:33:43.111Z,11.87
2018-06-09T06:36:11.985Z,12.30
2018-06-09T06:38:40.765Z,11.33
2018-06-09T06:41:09.445Z,11.90
2018-06-09T06:43:38.220Z,11.53
2018-06-09T06:46:06.927Z,12.37
2018-06-09T06:48:35.657Z,11.73
2018-06-09T06:51:04.485Z,11.97
2018-06-09T06:53:33.260Z,11.67
2018-06-09T06:56:02.165Z,12.83
2018-06-09T06:58:30.992Z,11.70
2018-06-09T07:00:59.778Z,12.03
2018-06-09T07:03:29.114Z,15.10
2018-06-09T07:05:59.132Z,11.33
2018-06-09T07:08:29.473Z,12.10
2018-06-09T07:11:00.918Z,12.13
2018-06-09T07:13:30.783Z,10.93
2018-06-09T07:16:01.534Z,11.70
2018-06-09T07:18:32.097Z,11.93
2018-06-09T07:21:08.884Z,11.53
2018-06-09T07:23:41.276Z,11.87
2018-06-09T07:26:12.500Z,12.30
2018-06-09T07:28:43.394Z,11.67
2018-06-09T07:31:12.984Z,12.80
2018-06-09T07:33:43.000Z,11.83
2018-06-09T07:36:12.945Z,12.43
2018-06-09T07:38:42.762Z,13.07
2018-06-09T07:41:12.428Z,12.23
2018-06-09T07:43:42.609Z,13.40
2018-06-09T07:46:11.631Z,13.30
2018-06-09T07:48:40.548Z,12.10
2018-06-09T07:51:09.567Z,11.70
2018-06-09T07:53:38.514Z,12.40
2018-06-09T07:56:07.819Z,12.33
2018-06-09T07:58:36.665Z,11.57
2018-06-09T08:01:05.380Z,11.03
2018-06-09T08:03:34.382Z,14.10
2018-06-09T08:06:03.150Z,11.97
2018-06-09T08:08:31.883Z,11.28
2018-06-09T08:11:00.748Z,11.25
2018-06-09T08:13:29.792Z,11.35
2018-06-09T08:15:58.890Z,10.10
2018-06-09T08:18:27.561Z,9.45
2018-06-09T08:20:56.262Z,10.85
2018-06-09T08:23:24.949Z,9.30
2018-06-09T08:25:56.402Z,8.98
2018-06-09T08:28:25.216Z,9.18
2018-06-09T08:30:53.952Z,9.00
2018-06-09T08:33:22.714Z,8.98
2018-06-09T08:35:51.620Z,9.20
2018-06-09T08:38:21.726Z,9.23
2018-06-09T08:40:50.398Z,9.47
2018-06-09T08:43:19.350Z,9.30
2018-06-09T08:45:48.244Z,9.85
2018-06-09T08:48:23.772Z,8.75
2018-06-09T08:50:52.822Z,8.83
2018-06-09T08:53:21.804Z,10.10
2018-06-09T08:55:50.559Z,9.27
2018-06-09T08:58:19.331Z,9.70
2018-06-09T09:00:48.067Z,11.73
2018-06-09T09:03:16.810Z,9.95
2018-06-09T09:05:45.590Z,9.50
2018-06-09T09:08:14.461Z,9.90
2018-06-09T09:10:43.284Z,10.30
2018-06-09T09:13:12.174Z,9.15
2018-06-09T09:15:41.091Z,11.67
2018-06-09T09:18:09.805Z,9.78
2018-06-09T09:20:38.653Z,12.55
2018-06-09T09:23:07.477Z,10.53
2018-06-09T09:25:36.256Z,10.03
2018-06-09T09:28:06.165Z,11.80
2018-06-09T09:30:35.224Z,13.20
2018-06-09T09:33:04.092Z,9.10
2018-06-09T09:35:33.017Z,9.63
2018-06-09T09:38:01.997Z,8.90
2018-06-09T09:40:30.793Z,9.30
2018-06-09T09:42:59.494Z,9.10
2018-06-09T09:45:28.082Z,8.93
2018-06-09T09:47:56.929Z,10.72
2018-06-09T09:50:25.795Z,10.65
2018-06-09T09:52:54.710Z,9.68
2018-06-09T09:55:23.643Z,10.38
2018-06-09T09:57:57.921Z,9.55
2018-06-09T10:00:32.146Z,8.50
2018-06-09T10:03:01.262Z,9.63
2018-06-09T10:05:29.916Z,10.98
2018-06-09T10:07:58.725Z,10.28
2018-06-09T10:10:27.772Z,9.75
2018-06-09T10:12:56.797Z,9.93
2018-06-09T10:15:25.862Z,9.65
2018-06-09T10:17:54.817Z,11.48
2018-06-09T10:20:23.671Z,11.33
2018-06-09T10:22:52.625Z,9.65
2018-06-09T10:25:21.673Z,9.98
2018-06-09T10:27:50.360Z,9.60
2018-06-09T10:30:19.157Z,9.70
2018-06-09T10:32:48.243Z,9.78
2018-06-09T10:35:17.035Z,10.55
2018-06-09T10:37:46.017Z,10.80
2018-06-09T10:40:14.800Z,9.40
2018-06-09T10:42:43.900Z,9.53
2018-06-09T10:45:12.734Z,9.53
2018-06-09T10:47:41.914Z,10.80
2018-06-09T10:50:10.706Z,9.38
2018-06-09T10:52:39.449Z,9.48
2018-06-09T10:55:08.136Z,9.25
2018-06-09T10:57:37.055Z,8.58
2018-06-09T11:00:06.108Z,9.50
2018-06-09T11:02:35.328Z,8.80
2018-06-09T11:05:04.248Z,8.50
2018-06-09T11:07:33.176Z,10.03
2018-06-09T11:10:01.886Z,8.08
2018-06-09T11:12:30.703Z,7.95
2018-06-09T11:14:59.701Z,7.90
2018-06-09T11:17:28.538Z,8.40
2018-06-09T11:19:57.282Z,8.13
2018-06-09T11:22:26.403Z,8.10
2018-06-09T11:24:55.791Z,7.75
2018-06-09T11:27:24.665Z,9.30
2018-06-09T11:29:53.586Z,8.03
2018-06-09T11:32:22.489Z,8.35
2018-06-09T11:34:51.239Z,8.75
2018-06-09T11:37:20.332Z,8.55
2018-06-09T11:39:49.235Z,8.23
2018-06-09T11:42:18.322Z,8.18
2018-06-09T11:44:47.315Z,8.85
2018-06-09T11:47:16.100Z,8.43
2018-06-09T11:49:45.037Z,8.85
2018-06-09T11:52:14.139Z,8.58
2018-06-09T11:54:43.116Z,8.73
2018-06-09T11:57:12.311Z,9.95
2018-06-09T11:59:40.800Z,8.28
2018-06-09T12:02:09.907Z,8.30
2018-06-09T12:04:39.350Z,8.63
2018-06-09T12:07:08.704Z,8.10
2018-06-09T12:09:37.677Z,8.43
2018-06-09T12:12:06.856Z,8.45
2018-06-09T12:14:35.980Z,7.78
2018-06-09T12:17:05.286Z,8.10
2018-06-09T12:19:34.041Z,8.38
2018-06-09T12:22:03.049Z,7.70
2018-06-09T12:24:31.864Z,8.23
2018-06-09T12:27:00.634Z,7.75
2018-06-09T12:29:29.364Z,8.30
2018-06-09T12:31:58.125Z,8.25
2018-06-09T12:34:27.028Z,8.50
2018-06-09T12:36:55.940Z,7.50
2018-06-09T12:39:24.975Z,8.40
2018-06-09T12:41:54.068Z,7.97
2018-06-09T12:44:23.089Z,8.40
2018-06-09T12:46:51.748Z,8.15
2018-06-09T12:49:20.784Z,8.03
2018-06-09T12:51:49.719Z,8.18
2018-06-09T12:54:18.528Z,8.38
2018-06-09T12:56:47.468Z,8.98
2018-06-09T12:59:16.446Z,8.30
2018-06-09T13:01:45.165Z,7.90
2018-06-09T13:04:14.120Z,8.83
2018-06-09T13:06:43.314Z,8.65
2018-06-09T13:09:12.161Z,8.30
2018-06-09T13:11:41.188Z,8.00
2018-06-09T13:14:10.905Z,8.78
2018-06-09T13:16:39.328Z,8.65
2018-06-09T13:19:08.219Z,9.03
2018-06-09T13:21:37.350Z,8.40
2018-06-09T13:24:06.471Z,9.00
2018-06-09T13:26:35.265Z,8.48
2018-06-09T13:29:04.136Z,8.75
2018-06-09T13:31:33.492Z,9.00
2018-06-09T13:34:02.522Z,9.90
2018-06-09T13:36:31.449Z,8.20
2018-06-09T13:39:00.060Z,8.33
2018-06-09T13:41:28.885Z,7.67
2018-06-09T13:43:57.942Z,9.20
2018-06-09T13:46:26.355Z,8.28
2018-06-09T13:48:55.354Z,9.03
2018-06-09T13:51:24.103Z,7.80
2018-06-09T13:53:53.226Z,8.08
2018-06-09T13:56:22.261Z,8.03
2018-06-09T13:58:51.264Z,8.18
2018-06-09T14:01:20.048Z,8.10
2018-06-09T14:03:48.937Z,8.03
2018-06-09T14:06:17.712Z,8.43
2018-06-09T14:08:46.696Z,9.48
2018-06-09T14:11:15.617Z,9.70
2018-06-09T14:13:44.560Z,8.35
2018-06-09T14:16:13.415Z,10.45
2018-06-09T14:18:42.357Z,9.55
2018-06-09T14:21:11.355Z,8.53
2018-06-09T14:23:40.369Z,9.40
2018-06-09T14:26:09.238Z,8.10
2018-06-09T14:28:38.101Z,8.38
2018-06-09T14:31:06.834Z,10.98
2018-06-09T14:33:35.732Z,7.45
2018-06-09T14:36:04.679Z,8.65
2018-06-09T14:38:33.485Z,8.28
2018-06-09T14:41:02.375Z,7.85
2018-06-09T14:43:31.348Z,8.78
2018-06-09T14:46:00.124Z,8.90
2018-06-09T14:48:29.178Z,8.60
2018-06-09T14:50:58.250Z,8.30
2018-06-09T14:53:27.346Z,10.30
2018-06-09T14:55:56.340Z,8.03
2018-06-09T14:58:25.465Z,9.55
2018-06-09T15:00:54.370Z,8.30
2018-06-09T15:03:23.245Z,7.83
2018-06-09T15:05:52.004Z,8.13
2018-06-09T15:08:21.180Z,8.63
2018-06-09T15:10:49.830Z,9.00
2018-06-09T15:13:18.273Z,9.60
2018-06-09T15:15:46.977Z,8.83
2018-06-09T15:18:15.787Z,8.78
2018-06-09T15:20:45.148Z,9.35
2018-06-09T15:23:14.103Z,8.93
2018-06-09T15:25:43.445Z,9.30
2018-06-09T15:28:13.943Z,9.50
2018-06-09T15:30:42.751Z,8.25
2018-06-09T15:33:13.490Z,9.77
2018-06-09T15:35:43.070Z,9.10
2018-06-09T15:38:12.071Z,10.38
2018-06-09T15:40:40.967Z,10.05
2018-06-09T15:43:10.218Z,10.08
2018-06-09T15:45:39.021Z,13.13
2018-06-09T15:48:07.754Z,20.10
2018-06-09T15:50:36.410Z,10.88
2018-06-09T15:53:05.334Z,8.85
2018-06-09T15:55:34.384Z,9.58
2018-06-09T15:58:03.265Z,13.50
2018-06-09T16:00:32.060Z,17.10
2018-06-09T16:03:01.055Z,19.82
2018-06-09T16:05:30.158Z,16.80
2018-06-09T16:07:59.089Z,9.58
2018-06-09T16:10:28.206Z,14.18
2018-06-09T16:12:57.533Z,12.85
2018-06-09T16:15:26.322Z,11.70
2018-06-09T16:17:54.798Z,14.70
2018-06-09T16:20:24.108Z,13.38
2018-06-09T16:22:53.416Z,13.30
2018-06-09T16:25:22.126Z,9.78
2018-06-09T16:27:51.644Z,10.60
2018-06-09T16:30:20.435Z,11.10
2018-06-09T16:32:49.205Z,7.93
2018-06-09T16:35:18.069Z,10.20
2018-06-09T16:37:47.145Z,11.83
2018-06-09T16:40:16.032Z,11.25
2018-06-09T16:42:45.011Z,13.87
2018-06-09T16:45:13.832Z,9.63
2018-06-09T16:47:42.934Z,11.07
2018-06-09T16:50:12.184Z,9.28
2018-06-09T16:52:41.193Z,8.78
2018-06-09T16:55:10.289Z,14.60
2018-06-09T16:57:38.995Z,12.07
2018-06-09T17:00:07.789Z,13.22
2018-06-09T17:02:36.659Z,8.93
2018-06-09T17:05:05.482Z,11.00
2018-06-09T17:07:35.391Z,10.67
2018-06-09T17:10:03.970Z,10.72
2018-06-09T17:12:32.937Z,10.28
2018-06-09T17:15:01.695Z,9.25
2018-06-09T17:17:30.721Z,9.05
2018-06-09T17:19:59.561Z,9.57
2018-06-09T17:22:28.405Z,12.50
2018-06-09T17:24:57.746Z,9.77
2018-06-09T17:27:26.595Z,11.77
2018-06-09T17:29:55.422Z,12.75
2018-06-09T17:32:24.371Z,10.90
2018-06-09T17:34:53.275Z,8.73
2018-06-09T17:37:22.054Z,9.03
2018-06-09T17:39:50.846Z,10.47
2018-06-09T17:42:19.869Z,10.18
2018-06-09T17:44:48.728Z,8.60
2018-06-09T17:47:17.537Z,14.78
2018-06-09T17:49:46.279Z,12.83
2018-06-09T17:52:15.099Z,15.17
2018-06-09T17:54:44.115Z,10.33
2018-06-09T17:57:13.145Z,11.12
2018-06-09T17:59:41.974Z,8.67
2018-06-09T18:02:12.507Z,9.43
2018-06-09T18:04:41.312Z,8.57
2018-06-09T18:07:15.099Z,14.73
2018-06-09T18:09:43.609Z,10.60
2018-06-09T18:12:12.647Z,12.03
2018-06-09T18:14:41.383Z,12.37
2018-06-09T18:17:10.255Z,8.23
2018-06-09T18:19:39.478Z,9.13
2018-06-09T18:22:08.632Z,10.43
2018-06-09T18:24:37.400Z,10.50
2018-06-09T18:27:06.229Z,10.50
2018-06-09T18:29:34.877Z,13.80
2018-06-09T18:32:03.908Z,10.00
2018-06-09T18:34:32.801Z,8.10
2018-06-09T18:37:01.909Z,10.60
2018-06-09T18:39:30.689Z,10.43
2018-06-09T18:41:59.676Z,11.33
2018-06-09T18:44:29.193Z,13.20
2018-06-09T18:46:58.113Z,8.70
2018-06-09T18:49:27.059Z,9.70
2018-06-09T18:51:56.046Z,10.73
2018-06-09T18:54:24.891Z,9.23
2018-06-09T18:56:55.494Z,13.97
2018-06-09T18:59:24.299Z,9.67
2018-06-09T19:01:53.155Z,10.67
2018-06-09T19:04:22.063Z,13.13
2018-06-09T19:06:50.981Z,13.23
2018-06-09T19:09:19.855Z,13.07
2018-06-09T19:11:49.041Z,14.03
2018-06-09T19:14:17.978Z,9.80
2018-06-09T19:16:47.094Z,13.13
2018-06-09T19:19:15.918Z,13.23
2018-06-09T19:21:44.651Z,12.37
2018-06-09T19:24:13.800Z,11.10
2018-06-09T19:26:42.878Z,10.33
2018-06-09T19:29:11.891Z,11.10
2018-06-09T19:31:40.822Z,14.07
2018-06-09T19:34:09.922Z,11.53
2018-06-09T19:36:38.873Z,11.23
2018-06-09T19:39:08.514Z,7.33
2018-06-09T19:41:37.577Z,10.53
2018-06-09T19:44:06.568Z,8.97
2018-06-09T19:46:35.319Z,9.47
2018-06-09T19:49:04.191Z,9.90
2018-06-09T19:51:33.171Z,13.57
2018-06-09T19:54:01.958Z,12.50
2018-06-09T19:56:30.745Z,13.73
2018-06-09T19:58:59.396Z,18.10
2018-06-09T20:01:28.236Z,9.93
2018-06-09T20:03:57.365Z,14.78
2018-06-09T20:06:26.218Z,12.40
2018-06-09T20:08:54.679Z,12.37
2018-06-09T20:11:23.552Z,13.17
2018-06-09T20:13:53.571Z,11.07
2018-06-09T20:16:22.360Z,9.40
2018-06-09T20:18:51.250Z,10.73
2018-06-09T20:21:20.155Z,14.87
2018-06-09T20:23:48.966Z,12.47
2018-06-09T20:26:17.784Z,10.93
2018-06-09T20:28:46.697Z,11.10
2018-06-09T20:31:15.708Z,15.10
2018-06-09T20:33:44.554Z,11.87
2018-06-09T20:36:13.232Z,13.77
2018-06-09T20:38:42.146Z,13.33
2018-06-09T20:41:11.000Z,10.37
2018-06-09T20:43:39.890Z,14.30
2018-06-09T20:46:08.757Z,15.15
2018-06-09T20:48:37.637Z,12.93
2018-06-09T20:51:06.426Z,13.00
2018-06-09T20:53:35.481Z,14.33
2018-06-09T20:56:04.721Z,12.13
2018-06-09T20:58:40.245Z,10.77
2018-06-09T21:01:09.090Z,12.57
2018-06-09T21:03:37.948Z,14.80
2018-06-09T21:06:06.840Z,13.27
2018-06-09T21:09:53.513Z,14.67
2018-06-09T21:12:22.524Z,17.03
2018-06-09T21:14:51.663Z,12.47
2018-06-09T21:17:20.538Z,14.47
2018-06-09T21:19:49.610Z,12.63
2018-06-09T21:22:18.650Z,13.27
2018-06-09T21:24:47.549Z,14.37
2018-06-09T21:27:21.536Z,13.30
2018-06-09T21:29:50.783Z,12.33
2018-06-09T21:32:25.505Z,14.57
2018-06-09T21:36:10.157Z,14.23
2018-06-09T21:39:42.619Z,16.90
2018-06-09T21:42:17.922Z,19.67
2018-06-09T21:44:54.230Z,17.30
2018-06-09T21:47:23.061Z,16.63
2018-06-09T21:49:52.215Z,13.73
2018-06-09T21:52:22.596Z,14.63
2018-06-09T21:54:53.365Z,13.53
2018-06-09T21:57:24.629Z,15.77
2018-06-09T21:59:54.392Z,19.70
2018-06-09T22:02:27.701Z,17.67
2018-06-09T22:04:58.309Z,17.53
2018-06-09T22:07:30.069Z,15.73
2018-06-09T22:09:58.743Z,14.27
2018-06-09T22:12:27.945Z,14.43
2018-06-09T22:14:56.737Z,13.53
2018-06-09T22:17:25.777Z,12.27
2018-06-09T22:19:54.769Z,14.67
2018-06-09T22:22:23.399Z,12.63
2018-06-09T22:24:52.382Z,16.80
2018-06-09T22:27:21.241Z,17.87
2018-06-09T22:29:49.960Z,12.93
2018-06-09T22:32:18.598Z,12.03
2018-06-09T22:34:47.398Z,14.00
2018-06-09T22:37:16.516Z,12.67
2018-06-09T22:39:45.356Z,15.37
2018-06-09T22:42:14.226Z,15.43
2018-06-09T22:44:43.120Z,15.93
2018-06-09T22:47:11.960Z,13.73
2018-06-09T22:49:41.076Z,16.80
2018-06-09T22:52:09.957Z,15.40
2018-06-09T22:54:38.635Z,15.73
2018-06-09T22:57:07.461Z,11.57
2018-06-09T22:59:36.201Z,12.40
2018-06-09T23:02:05.105Z,14.57
2018-06-09T23:04:34.040Z,13.77
2018-06-09T23:07:03.293Z,14.93
2018-06-09T23:09:32.230Z,18.10
2018-06-09T23:12:01.075Z,16.03
2018-06-09T23:14:30.069Z,14.17
2018-06-09T23:16:59.061Z,16.80
2018-06-09T23:19:27.766Z,17.23
2018-06-09T23:21:56.742Z,15.17
2018-06-09T23:24:25.547Z,15.07
2018-06-09T23:26:54.229Z,16.20
2018-06-09T23:29:23.129Z,14.70
2018-06-09T23:31:52.306Z,19.07
2018-06-09T23:34:21.402Z,15.63
2018-06-09T23:36:50.189Z,13.27
2018-06-09T23:39:19.196Z,17.90
2018-06-09T23:41:48.165Z,16.40
2018-06-09T23:44:17.071Z,21.40
2018-06-09T23:46:46.096Z,15.23
2018-06-09T23:49:14.959Z,13.87
2018-06-09T23:51:43.722Z,15.17
2018-06-09T23:54:12.533Z,13.30
2018-06-09T23:56:41.431Z,14.33
2018-06-09T23:59:10.312Z,14.13
